Terminal Aerodrome Forecast
Issued by NWS Houston/Galveston, TX

Current Version | Previous Version | Text Only | Print | Product List | Glossary Off
Versions: 1 2 3 4 5 6 7 8 9 10 11 12 13 14 15 16 17 18

000
FTUS44 KHGX 310606 AAA
TAFCLL
TAF AMD
KCLL 310606Z 3106/0106 01004KT P6SM VCSH BKN060
      TEMPO 3106/3109 VRB07KT -SHRA SCT040 BKN070
     FM311100 36009KT P6SM SCT040
     FM311500 36015G21KT P6SM SKC
     FM010300 01008KT P6SM SKC=

USA.gov is the U.S. government's official web portal to all federal, state and local government web resources and services.